Time,TemperatureF,DewpointF,PressureIn,WindDirection,WindDirectionDegrees,WindSpeedMPH,WindSpeedGustMPH,Humidity,HourlyPrecipIn,Conditions,Clouds,dailyrainin,SoftwareType,DateUTC
2013-05-29 00:01:00,51.0,49.0,29.78,ESE,119,0.0,0.0,93,0.00,,---,0.02,VWS V13.00,2013-05-29 07:01:00,
2013-05-29 00:06:00,51.0,49.0,29.77,ESE,119,0.0,0.0,93,0.00,,---,0.02,VWS V13.00,2013-05-29 07:06:00,
2013-05-29 00:11:00,50.8,48.8,29.77,ESE,119,0.0,0.0,93,0.00,,---,0.00,VWS V13.00,2013-05-29 07:11:00,
2013-05-29 00:16:00,50.8,48.8,29.77,ESE,119,0.0,0.0,93,0.00,,---,0.00,VWS V13.00,2013-05-29 07:16:00,
2013-05-29 00:21:00,50.8,48.8,29.77,ESE,119,0.0,0.0,93,0.00,,---,0.00,VWS V13.00,2013-05-29 07:21:00,
2013-05-29 00:26:00,50.8,48.8,29.77,ESE,119,0.0,0.0,93,0.00,,---,0.00,VWS V13.00,2013-05-29 07:26:00,
2013-05-29 00:31:00,50.8,48.8,29.77,ESE,119,0.0,0.0,93,0.00,,---,0.00,VWS V13.00,2013-05-29 07:31:00,
2013-05-29 00:36:00,50.7,48.8,29.76,ESE,119,0.0,0.0,93,0.00,,---,0.00,VWS V13.00,2013-05-29 07:36:00,
2013-05-29 00:41:00,50.7,48.8,29.76,ESE,119,0.0,0.0,93,0.00,,---,0.00,VWS V13.00,2013-05-29 07:41:00,
2013-05-29 00:46:00,50.7,48.8,29.76,ESE,119,0.0,0.0,93,0.00,,---,0.00,VWS V13.00,2013-05-29 07:46:00,
2013-05-29 00:51:00,50.7,48.8,29.76,ESE,119,0.0,0.0,93,0.00,,---,0.00,VWS V13.00,2013-05-29 07:51:00,
2013-05-29 00:56:00,50.7,48.8,29.76,ESE,119,0.0,0.0,93,0.00,,---,0.00,VWS V13.00,2013-05-29 07:56:00,
2013-05-29 01:01:00,50.7,48.8,29.76,ESE,119,0.0,0.0,93,0.00,,---,0.00,VWS V13.00,2013-05-29 08:01:00,
2013-05-29 01:06:00,50.7,48.8,29.75,ESE,119,0.0,0.0,93,0.00,,---,0.00,VWS V13.00,2013-05-29 08:06:00,
2013-05-29 01:11:00,50.7,48.8,29.75,ESE,119,0.0,0.0,93,0.00,,---,0.00,VWS V13.00,2013-05-29 08:11:00,
2013-05-29 01:16:00,50.7,48.8,29.75,ESE,119,0.0,0.0,93,0.00,,---,0.00,VWS V13.00,2013-05-29 08:16:00,
2013-05-29 01:21:00,50.7,48.8,29.74,ESE,119,0.0,0.0,93,0.00,,---,0.00,VWS V13.00,2013-05-29 08:21:00,
2013-05-29 01:26:00,50.7,48.8,29.74,ESE,119,0.0,0.0,93,0.00,,---,0.00,VWS V13.00,2013-05-29 08:26:00,
2013-05-29 01:31:00,50.7,48.8,29.74,ESE,119,0.0,0.0,93,0.00,,---,0.00,VWS V13.00,2013-05-29 08:31:00,
2013-05-29 01:36:00,50.7,48.8,29.74,ESE,119,0.0,0.0,93,0.00,,---,0.00,VWS V13.00,2013-05-29 08:36:00,
2013-05-29 01:41:00,50.5,48.6,29.74,ESE,119,0.0,0.0,93,0.00,,---,0.00,VWS V13.00,2013-05-29 08:41:00,
2013-05-29 01:46:00,50.5,48.6,29.74,ESE,119,0.0,1.0,93,0.00,,---,0.00,VWS V13.00,2013-05-29 08:46:00,
2013-05-29 01:51:00,50.4,48.5,29.73,North,353,0.0,1.0,93,0.00,,---,0.00,VWS V13.00,2013-05-29 08:51:00,
2013-05-29 01:56:00,50.4,48.5,29.73,North,353,0.0,1.0,93,0.00,,---,0.00,VWS V13.00,2013-05-29 08:56:00,
2013-05-29 02:01:00,50.4,48.5,29.73,North,353,0.0,1.0,93,0.00,,---,0.00,VWS V13.00,2013-05-29 09:01:00,
2013-05-29 02:06:00,50.4,48.7,29.72,North,353,0.0,1.0,94,0.00,,---,0.00,VWS V13.00,2013-05-29 09:06:00,
2013-05-29 02:11:00,50.4,48.5,29.72,North,353,0.0,0.0,93,0.00,,---,0.00,VWS V13.00,2013-05-29 09:11:00,
2013-05-29 02:16:00,50.2,48.5,29.72,North,353,0.0,0.0,94,0.00,,---,0.00,VWS V13.00,2013-05-29 09:16:00,
2013-05-29 02:21:00,50.2,48.5,29.72,North,353,0.0,0.0,94,0.00,,---,0.00,VWS V13.00,2013-05-29 09:21:00,
2013-05-29 02:26:00,50.2,48.5,29.72,North,353,0.0,0.0,94,0.00,,---,0.00,VWS V13.00,2013-05-29 09:26:00,
2013-05-29 02:31:00,50.4,48.7,29.72,North,353,0.0,0.0,94,0.00,,---,0.00,VWS V13.00,2013-05-29 09:31:00,
2013-05-29 02:36:00,50.4,48.7,29.72,North,353,0.0,0.0,94,0.00,,---,0.00,VWS V13.00,2013-05-29 09:36:00,
2013-05-29 02:41:00,50.4,48.7,29.72,North,353,0.0,0.0,94,0.00,,---,0.00,VWS V13.00,2013-05-29 09:41:00,
2013-05-29 02:46:00,50.4,48.7,29.72,North,353,0.0,0.0,94,0.01,,---,0.01,VWS V13.00,2013-05-29 09:46:00,
2013-05-29 02:51:00,50.4,48.7,29.72,North,353,0.0,0.0,94,0.02,,---,0.02,VWS V13.00,2013-05-29 09:51:00,
2013-05-29 02:56:00,50.4,48.7,29.72,North,353,0.0,0.0,94,0.02,,---,0.03,VWS V13.00,2013-05-29 09:56:00,
2013-05-29 03:01:00,50.4,48.7,29.72,North,353,0.0,0.0,94,0.03,,---,0.03,VWS V13.00,2013-05-29 10:01:00,
2013-05-29 03:06:00,50.4,48.7,29.72,North,353,0.0,0.0,94,0.04,,---,0.04,VWS V13.00,2013-05-29 10:06:00,
2013-05-29 03:11:00,50.4,48.7,29.72,North,353,0.0,0.0,94,0.04,,---,0.04,VWS V13.00,2013-05-29 10:11:00,
2013-05-29 03:16:00,50.4,48.7,29.72,North,353,0.0,0.0,94,0.04,,---,0.04,VWS V13.00,2013-05-29 10:16:00,
2013-05-29 03:21:00,50.4,48.7,29.71,North,353,0.0,0.0,94,0.04,,---,0.04,VWS V13.00,2013-05-29 10:21:00,
2013-05-29 03:26:00,50.2,48.5,29.71,North,353,0.0,0.0,94,0.07,,---,0.07,VWS V13.00,2013-05-29 10:26:00,
2013-05-29 03:31:00,50.2,48.5,29.71,North,353,0.0,0.0,94,0.08,,---,0.08,VWS V13.00,2013-05-29 10:31:00,
2013-05-29 03:36:00,50.2,48.5,29.71,North,350,0.0,0.0,94,0.09,,---,0.09,VWS V13.00,2013-05-29 10:36:00,
2013-05-29 03:41:00,50.2,48.5,29.71,North,350,0.0,0.0,94,0.09,,---,0.09,VWS V13.00,2013-05-29 10:41:00,
2013-05-29 03:46:00,50.2,48.5,29.71,North,349,0.0,0.0,94,0.10,,---,0.10,VWS V13.00,2013-05-29 10:46:00,
2013-05-29 03:51:00,49.9,48.2,29.71,North,350,0.0,0.0,94,0.10,,---,0.10,VWS V13.00,2013-05-29 10:51:00,
2013-05-29 03:56:00,49.9,48.2,29.71,North,349,0.0,0.0,94,0.12,,---,0.12,VWS V13.00,2013-05-29 10:56:00,
2013-05-29 04:01:00,49.9,48.2,29.71,North,349,0.0,0.0,94,0.12,,---,0.12,VWS V13.00,2013-05-29 11:01:00,
2013-05-29 04:06:00,49.8,48.2,29.70,North,350,0.0,0.0,94,0.12,,---,0.12,VWS V13.00,2013-05-29 11:06:00,
2013-05-29 04:11:00,49.8,48.2,29.70,North,350,0.0,0.0,94,0.08,,---,0.12,VWS V13.00,2013-05-29 11:11:00,
2013-05-29 04:16:00,49.8,48.2,29.70,North,350,0.0,0.0,94,0.08,,---,0.12,VWS V13.00,2013-05-29 11:16:00,
2013-05-29 04:21:00,49.8,48.2,29.70,North,350,0.0,0.0,94,0.08,,---,0.12,VWS V13.00,2013-05-29 11:21:00,
2013-05-29 04:26:00,49.8,48.2,29.70,North,350,0.0,0.0,94,0.08,,---,0.12,VWS V13.00,2013-05-29 11:26:00,
2013-05-29 04:31:00,49.8,48.2,29.70,North,350,0.0,0.0,94,0.08,,---,0.12,VWS V13.00,2013-05-29 11:31:00,
2013-05-29 04:35:00,49.8,48.2,29.69,North,350,0.0,0.0,94,0.08,,---,0.12,VWS V13.00,2013-05-29 11:35:00,
2013-05-29 04:40:00,49.8,48.2,29.69,North,350,0.0,0.0,94,0.07,,---,0.16,VWS V13.00,2013-05-29 11:40:00,
2013-05-29 04:45:00,49.5,48.1,29.69,North,350,0.0,0.0,95,0.08,,---,0.17,VWS V13.00,2013-05-29 11:45:00,
2013-05-29 04:50:00,49.5,48.1,29.69,North,350,0.0,0.0,95,0.08,,---,0.17,VWS V13.00,2013-05-29 11:50:00,
2013-05-29 04:55:00,49.5,48.1,29.69,North,350,0.0,0.0,95,0.08,,---,0.17,VWS V13.00,2013-05-29 11:55:00,
2013-05-29 05:00:00,49.5,48.1,29.69,North,350,0.0,0.0,95,0.08,,---,0.17,VWS V13.00,2013-05-29 12:00:00,
2013-05-29 05:05:00,49.5,48.1,29.69,North,350,0.0,0.0,95,0.08,,---,0.17,VWS V13.00,2013-05-29 12:05:00,
2013-05-29 05:10:00,49.5,48.1,29.69,North,350,0.0,0.0,95,0.05,,---,0.17,VWS V13.00,2013-05-29 12:10:00,
2013-05-29 05:15:00,49.4,48.0,29.69,North,350,0.0,0.0,95,0.05,,---,0.17,VWS V13.00,2013-05-29 12:15:00,
2013-05-29 05:20:00,49.4,48.0,29.70,North,349,0.0,0.0,95,0.05,,---,0.17,VWS V13.00,2013-05-29 12:20:00,
2013-05-29 05:25:00,49.4,48.0,29.70,North,349,0.0,0.0,95,0.05,,---,0.18,VWS V13.00,2013-05-29 12:25:00,
2013-05-29 05:30:00,49.4,48.0,29.70,SSE,165,0.0,0.0,95,0.06,,---,0.18,VWS V13.00,2013-05-29 12:30:00,
2013-05-29 05:35:00,49.4,48.0,29.69,SSE,165,0.0,0.0,95,0.06,,---,0.18,VWS V13.00,2013-05-29 12:35:00,
2013-05-29 05:40:00,49.4,48.0,29.69,SSE,165,0.0,0.0,95,0.06,,---,0.18,VWS V13.00,2013-05-29 12:40:00,
2013-05-29 05:45:00,49.4,48.0,29.69,SSE,165,0.0,0.0,95,0.06,,---,0.18,VWS V13.00,2013-05-29 12:45:00,
2013-05-29 05:50:00,49.4,48.0,29.69,SSE,165,0.0,0.0,95,0.06,,---,0.18,VWS V13.00,2013-05-29 12:50:00,
2013-05-29 05:55:00,49.4,48.0,29.69,SSE,165,0.0,0.0,95,0.06,,---,0.18,VWS V13.00,2013-05-29 12:55:00,
2013-05-29 06:00:00,49.4,48.0,29.69,SSE,165,0.0,0.0,95,0.06,,---,0.18,VWS V13.00,2013-05-29 13:00:00,
2013-05-29 06:05:00,49.4,48.0,29.69,SSE,165,0.0,0.0,95,0.06,,---,0.18,VWS V13.00,2013-05-29 13:05:00,
2013-05-29 06:10:00,49.4,48.0,29.69,SSE,165,0.0,0.0,95,0.01,,---,0.18,VWS V13.00,2013-05-29 13:10:00,
2013-05-29 06:15:00,49.4,48.3,29.69,SSE,165,0.0,0.0,96,0.01,,---,0.18,VWS V13.00,2013-05-29 13:15:00,
2013-05-29 06:20:00,49.4,48.3,29.70,SSE,165,0.0,0.0,96,0.01,,---,0.18,VWS V13.00,2013-05-29 13:20:00,
2013-05-29 06:25:00,49.4,48.3,29.70,SSE,165,0.0,0.0,96,0.01,,---,0.18,VWS V13.00,2013-05-29 13:25:00,
2013-05-29 06:30:00,49.4,48.3,29.70,SSE,165,0.0,0.0,96,0.01,,---,0.18,VWS V13.00,2013-05-29 13:30:00,
2013-05-29 06:35:00,49.4,48.3,29.71,SSE,165,0.0,0.0,96,0.02,,---,0.19,VWS V13.00,2013-05-29 13:35:00,
2013-05-29 06:40:00,49.5,48.4,29.71,SSE,165,0.0,0.0,96,0.01,,---,0.19,VWS V13.00,2013-05-29 13:40:00,
2013-05-29 06:45:00,49.5,48.4,29.71,SSE,165,0.0,0.0,96,0.01,,---,0.19,VWS V13.00,2013-05-29 13:45:00,
2013-05-29 06:50:00,49.4,48.3,29.71,SSE,165,0.0,0.0,96,0.01,,---,0.19,VWS V13.00,2013-05-29 13:50:00,
2013-05-29 06:55:00,49.4,48.3,29.71,SSE,165,0.0,0.0,96,0.01,,---,0.19,VWS V13.00,2013-05-29 13:55:00,
2013-05-29 07:00:00,49.4,48.3,29.71,SSE,165,0.0,0.0,96,0.01,,---,0.19,VWS V13.00,2013-05-29 14:00:00,
2013-05-29 07:05:00,49.4,48.3,29.70,SSE,165,0.0,0.0,96,0.01,,---,0.19,VWS V13.00,2013-05-29 14:05:00,
2013-05-29 07:10:00,49.4,48.3,29.70,SSE,165,0.0,0.0,96,0.01,,---,0.19,VWS V13.00,2013-05-29 14:10:00,
2013-05-29 07:15:00,49.5,48.4,29.70,SSE,165,0.0,0.0,96,0.01,,---,0.19,VWS V13.00,2013-05-29 14:15:00,
2013-05-29 07:20:00,49.5,48.4,29.70,SSE,165,0.0,0.0,96,0.02,,---,0.20,VWS V13.00,2013-05-29 14:20:00,
2013-05-29 07:25:00,49.5,48.4,29.71,SSE,165,0.0,0.0,96,0.02,,---,0.20,VWS V13.00,2013-05-29 14:25:00,
2013-05-29 07:30:00,49.5,48.4,29.71,SSE,165,0.0,0.0,96,0.02,,---,0.20,VWS V13.00,2013-05-29 14:30:00,
2013-05-29 07:35:00,49.5,48.4,29.71,SSE,165,0.0,0.0,96,0.02,,---,0.20,VWS V13.00,2013-05-29 14:35:00,
2013-05-29 07:40:00,49.5,48.4,29.71,SSE,165,0.0,0.0,96,0.02,,---,0.21,VWS V13.00,2013-05-29 14:40:00,
2013-05-29 07:45:00,49.5,48.4,29.71,SSE,165,0.0,0.0,96,0.02,,---,0.21,VWS V13.00,2013-05-29 14:45:00,
2013-05-29 07:50:00,49.6,48.5,29.71,SSE,165,0.0,0.0,96,0.02,,---,0.21,VWS V13.00,2013-05-29 14:50:00,
2013-05-29 07:55:00,49.6,48.5,29.71,SSE,165,0.0,0.0,96,0.02,,---,0.21,VWS V13.00,2013-05-29 14:55:00,
2013-05-29 08:00:00,49.6,48.5,29.71,SSE,165,0.0,0.0,96,0.02,,---,0.21,VWS V13.00,2013-05-29 15:00:00,
2013-05-29 08:05:00,49.9,48.8,29.71,North,350,0.0,0.0,96,0.03,,---,0.22,VWS V13.00,2013-05-29 15:05:00,
2013-05-29 08:10:00,49.9,48.8,29.71,North,350,0.0,0.0,96,0.03,,---,0.22,VWS V13.00,2013-05-29 15:10:00,
2013-05-29 08:15:00,50.1,49.0,29.71,North,350,0.0,0.0,96,0.03,,---,0.22,VWS V13.00,2013-05-29 15:15:00,
2013-05-29 08:20:00,50.2,49.1,29.71,North,350,0.0,0.0,96,0.03,,---,0.22,VWS V13.00,2013-05-29 15:20:00,
2013-05-29 08:25:00,50.2,49.1,29.71,North,350,0.0,0.0,96,0.03,,---,0.22,VWS V13.00,2013-05-29 15:25:00,
2013-05-29 08:30:00,50.2,49.1,29.71,North,350,0.0,0.0,96,0.03,,---,0.22,VWS V13.00,2013-05-29 15:30:00,
2013-05-29 08:35:00,50.5,49.4,29.71,North,10,0.0,0.0,96,0.03,,---,0.22,VWS V13.00,2013-05-29 15:35:00,
2013-05-29 08:40:00,50.7,49.6,29.70,NNW,346,0.0,0.0,96,0.02,,---,0.22,VWS V13.00,2013-05-29 15:40:00,
2013-05-29 08:45:00,50.8,49.7,29.70,North,353,0.0,0.0,96,0.02,,---,0.22,VWS V13.00,2013-05-29 15:45:00,
2013-05-29 08:50:00,51.1,50.0,29.70,North,353,0.0,0.0,96,0.02,,---,0.22,VWS V13.00,2013-05-29 15:50:00,
2013-05-29 08:55:00,51.6,50.8,29.71,North,353,0.0,0.0,97,0.02,,---,0.22,VWS V13.00,2013-05-29 15:55:00,
2013-05-29 09:00:00,51.7,50.9,29.71,North,353,0.0,0.0,97,0.02,,---,0.22,VWS V13.00,2013-05-29 16:00:00,
2013-05-29 09:05:00,51.9,50.8,29.71,North,353,0.0,0.0,96,0.02,,---,0.22,VWS V13.00,2013-05-29 16:05:00,
2013-05-29 09:10:00,52.0,50.9,29.71,North,353,0.0,0.0,96,0.00,,---,0.22,VWS V13.00,2013-05-29 16:10:00,
2013-05-29 09:15:00,52.2,51.1,29.71,North,353,0.0,0.0,96,0.00,,---,0.22,VWS V13.00,2013-05-29 16:15:00,
2013-05-29 09:20:00,52.2,51.1,29.71,North,353,0.0,0.0,96,0.00,,---,0.22,VWS V13.00,2013-05-29 16:20:00,
2013-05-29 09:25:00,52.5,51.4,29.71,North,353,0.0,0.0,96,0.00,,---,0.22,VWS V13.00,2013-05-29 16:25:00,
2013-05-29 09:30:00,52.6,51.8,29.71,North,353,0.0,0.0,97,0.00,,---,0.22,VWS V13.00,2013-05-29 16:30:00,
2013-05-29 09:35:00,52.6,51.5,29.71,North,353,0.0,0.0,96,0.00,,---,0.22,VWS V13.00,2013-05-29 16:35:00,
2013-05-29 09:40:00,52.6,51.5,29.72,North,353,0.0,0.0,96,0.00,,---,0.22,VWS V13.00,2013-05-29 16:40:00,
2013-05-29 09:45:00,52.6,51.5,29.72,North,353,0.0,0.0,96,0.00,,---,0.22,VWS V13.00,2013-05-29 16:45:00,
2013-05-29 09:50:00,52.6,51.5,29.72,North,353,0.0,0.0,96,0.00,,---,0.22,VWS V13.00,2013-05-29 16:50:00,
2013-05-29 09:55:00,52.8,51.7,29.73,North,353,0.0,0.0,96,0.00,,---,0.22,VWS V13.00,2013-05-29 16:55:00,
2013-05-29 10:00:00,52.6,51.5,29.73,North,353,0.0,0.0,96,0.00,,---,0.22,VWS V13.00,2013-05-29 17:00:00,
2013-05-29 10:05:00,52.6,51.5,29.73,North,353,0.0,0.0,96,0.00,,---,0.22,VWS V13.00,2013-05-29 17:05:00,
2013-05-29 10:10:00,52.5,51.4,29.74,North,353,0.0,0.0,96,0.00,,---,0.22,VWS V13.00,2013-05-29 17:10:00,
2013-05-29 10:15:00,52.5,51.4,29.74,North,353,0.0,0.0,96,0.00,,---,0.22,VWS V13.00,2013-05-29 17:15:00,
2013-05-29 10:20:00,52.8,51.7,29.74,North,353,0.0,0.0,96,0.00,,---,0.22,VWS V13.00,2013-05-29 17:20:00,
2013-05-29 10:25:00,52.9,52.1,29.74,North,353,0.0,0.0,97,0.00,,---,0.22,VWS V13.00,2013-05-29 17:25:00,
2013-05-29 10:30:00,52.9,51.8,29.74,North,353,0.0,0.0,96,0.00,,---,0.22,VWS V13.00,2013-05-29 17:30:00,
2013-05-29 10:35:00,52.9,51.8,29.74,North,353,0.0,0.0,96,0.00,,---,0.22,VWS V13.00,2013-05-29 17:35:00,
2013-05-29 10:40:00,53.1,52.0,29.75,North,353,0.0,0.0,96,0.00,,---,0.22,VWS V13.00,2013-05-29 17:40:00,
2013-05-29 10:45:00,53.1,52.0,29.75,North,353,0.0,0.0,96,0.01,,---,0.23,VWS V13.00,2013-05-29 17:45:00,
2013-05-29 10:50:00,53.1,52.0,29.75,North,353,0.0,0.0,96,0.01,,---,0.23,VWS V13.00,2013-05-29 17:50:00,
2013-05-29 10:55:00,52.9,51.8,29.76,North,353,0.0,0.0,96,0.03,,---,0.25,VWS V13.00,2013-05-29 17:55:00,
2013-05-29 11:00:00,52.6,51.5,29.76,North,353,0.0,0.0,96,0.03,,---,0.25,VWS V13.00,2013-05-29 18:00:00,
2013-05-29 11:05:00,52.5,51.4,29.76,North,353,0.0,0.0,96,0.03,,---,0.25,VWS V13.00,2013-05-29 18:05:00,
2013-05-29 11:10:00,52.5,51.4,29.77,North,353,0.0,0.0,96,0.03,,---,0.25,VWS V13.00,2013-05-29 18:10:00,
2013-05-29 11:15:00,52.3,51.2,29.77,North,353,0.0,0.0,96,0.03,,---,0.25,VWS V13.00,2013-05-29 18:15:00,
2013-05-29 11:20:00,52.5,51.4,29.77,North,353,0.0,0.0,96,0.03,,---,0.25,VWS V13.00,2013-05-29 18:20:00,
2013-05-29 11:25:00,52.6,51.5,29.78,North,353,0.0,0.0,96,0.03,,---,0.25,VWS V13.00,2013-05-29 18:25:00,
2013-05-29 11:30:00,52.8,51.7,29.78,North,353,0.0,0.0,96,0.03,,---,0.25,VWS V13.00,2013-05-29 18:30:00,
2013-05-29 11:35:00,53.2,52.1,29.78,North,353,1.0,1.0,96,0.03,,---,0.25,VWS V13.00,2013-05-29 18:35:00,
2013-05-29 11:40:00,53.3,52.2,29.79,North,353,0.0,0.0,96,0.03,,---,0.25,VWS V13.00,2013-05-29 18:40:00,
2013-05-29 11:45:00,53.5,52.4,29.79,North,353,0.0,0.0,96,0.03,,---,0.25,VWS V13.00,2013-05-29 18:45:00,
2013-05-29 11:50:00,53.6,52.5,29.79,North,353,0.0,0.0,96,0.03,,---,0.25,VWS V13.00,2013-05-29 18:50:00,
2013-05-29 11:55:00,53.8,52.7,29.79,North,353,0.0,0.0,96,0.03,,---,0.25,VWS V13.00,2013-05-29 18:55:00,
2013-05-29 12:00:00,53.9,52.8,29.79,North,353,0.0,0.0,96,0.03,,---,0.25,VWS V13.00,2013-05-29 19:00:00,
2013-05-29 12:05:00,54.1,53.0,29.79,North,353,0.0,0.0,96,0.03,,---,0.25,VWS V13.00,2013-05-29 19:05:00,
2013-05-29 12:10:00,53.9,52.8,29.80,South,182,0.0,1.0,96,0.00,,---,0.25,VWS V13.00,2013-05-29 19:10:00,
2013-05-29 12:15:00,53.9,52.8,29.80,South,182,0.0,1.0,96,0.00,,---,0.25,VWS V13.00,2013-05-29 19:15:00,
2013-05-29 12:20:00,53.6,52.5,29.80,SSE,155,0.0,6.0,96,0.00,,---,0.25,VWS V13.00,2013-05-29 19:20:00,
2013-05-29 12:25:00,53.6,52.5,29.81,SSE,168,0.0,6.0,96,0.00,,---,0.25,VWS V13.00,2013-05-29 19:25:00,
2013-05-29 12:30:00,53.3,52.2,29.81,SW,232,2.0,6.0,96,0.00,,---,0.25,VWS V13.00,2013-05-29 19:30:00,
2013-05-29 12:35:00,53.1,52.0,29.81,WSW,250,0.0,6.0,96,0.03,,---,0.28,VWS V13.00,2013-05-29 19:35:00,
2013-05-29 12:40:00,52.9,51.5,29.82,SW,220,0.0,0.0,95,0.04,,---,0.29,VWS V13.00,2013-05-29 19:40:00,
2013-05-29 12:45:00,53.1,52.0,29.82,SW,220,0.0,0.0,96,0.04,,---,0.29,VWS V13.00,2013-05-29 19:45:00,
2013-05-29 12:50:00,53.1,52.0,29.82,SSW,198,0.0,0.0,96,0.04,,---,0.30,VWS V13.00,2013-05-29 19:50:00,
2013-05-29 12:55:00,53.1,52.0,29.83,WSW,247,0.0,2.0,96,0.05,,---,0.30,VWS V13.00,2013-05-29 19:55:00,
2013-05-29 13:00:00,53.2,52.1,29.83,WSW,247,0.0,2.0,96,0.05,,---,0.30,VWS V13.00,2013-05-29 20:00:00,
2013-05-29 13:05:00,53.3,52.2,29.83,WSW,247,0.0,2.0,96,0.05,,---,0.30,VWS V13.00,2013-05-29 20:05:00,
2013-05-29 13:10:00,53.3,52.2,29.83,WSW,247,0.0,0.0,96,0.05,,---,0.30,VWS V13.00,2013-05-29 20:10:00,
2013-05-29 13:15:00,53.3,52.2,29.83,WSW,247,0.0,0.0,96,0.05,,---,0.30,VWS V13.00,2013-05-29 20:15:00,
2013-05-29 13:20:00,53.5,52.4,29.83,WSW,247,0.0,0.0,96,0.05,,---,0.30,VWS V13.00,2013-05-29 20:20:00,
2013-05-29 13:25:00,53.6,52.5,29.84,WSW,247,0.0,0.0,96,0.05,,---,0.30,VWS V13.00,2013-05-29 20:25:00,
2013-05-29 13:30:00,54.1,53.0,29.84,SSW,212,1.0,3.0,96,0.05,,---,0.30,VWS V13.00,2013-05-29 20:30:00,
2013-05-29 13:35:00,54.1,52.7,29.84,NE,37,0.0,3.0,95,0.05,,---,0.30,VWS V13.00,2013-05-29 20:35:00,
2013-05-29 13:40:00,54.2,53.1,29.84,NE,37,0.0,1.0,96,0.01,,---,0.30,VWS V13.00,2013-05-29 20:40:00,
2013-05-29 13:45:00,54.2,52.8,29.84,West,268,0.0,2.0,95,0.01,,---,0.30,VWS V13.00,2013-05-29 20:45:00,
2013-05-29 13:50:00,54.1,52.7,29.84,West,268,0.0,2.0,95,0.01,,---,0.30,VWS V13.00,2013-05-29 20:50:00,
2013-05-29 13:55:00,53.9,52.5,29.84,West,261,0.0,2.0,95,0.02,,---,0.31,VWS V13.00,2013-05-29 20:55:00,
2013-05-29 14:00:00,53.6,51.9,29.84,SE,138,0.0,3.0,94,0.02,,---,0.31,VWS V13.00,2013-05-29 21:00:00,
2013-05-29 14:05:00,53.5,51.8,29.84,West,263,0.0,3.0,94,0.02,,---,0.31,VWS V13.00,2013-05-29 21:05:00,
2013-05-29 14:10:00,53.3,51.6,29.85,South,188,0.0,0.0,94,0.01,,---,0.31,VWS V13.00,2013-05-29 21:10:00,
2013-05-29 14:15:00,53.1,51.4,29.85,South,184,0.0,2.0,94,0.01,,---,0.31,VWS V13.00,2013-05-29 21:15:00,
2013-05-29 14:20:00,53.2,51.5,29.85,SSW,193,0.0,2.0,94,0.01,,---,0.31,VWS V13.00,2013-05-29 21:20:00,
2013-05-29 14:25:00,53.3,51.6,29.86,South,188,0.0,4.0,94,0.01,,---,0.31,VWS V13.00,2013-05-29 21:25:00,
2013-05-29 14:30:00,53.5,51.8,29.86,SSW,213,0.0,4.0,94,0.01,,---,0.31,VWS V13.00,2013-05-29 21:30:00,
2013-05-29 14:34:00,53.8,52.1,29.86,SSW,206,0.0,4.0,94,0.01,,---,0.31,VWS V13.00,2013-05-29 21:34:00,
2013-05-29 14:39:00,53.8,52.1,29.86,WSW,253,0.0,3.0,94,0.01,,---,0.31,VWS V13.00,2013-05-29 21:39:00,
2013-05-29 14:44:00,53.6,51.6,29.86,SW,216,0.0,6.0,93,0.01,,---,0.31,VWS V13.00,2013-05-29 21:44:00,
2013-05-29 14:49:00,53.6,51.6,29.86,ESE,113,0.0,6.0,93,0.04,,---,0.34,VWS V13.00,2013-05-29 21:49:00,
2013-05-29 14:54:00,53.6,51.6,29.88,WSW,237,0.0,7.0,93,0.04,,---,0.34,VWS V13.00,2013-05-29 21:54:00,
2013-05-29 14:59:00,53.1,50.8,29.88,WSW,243,3.0,7.0,92,0.05,,---,0.35,VWS V13.00,2013-05-29 21:59:00,
2013-05-29 15:04:00,52.9,50.6,29.88,SSW,205,4.0,7.0,92,0.05,,---,0.35,VWS V13.00,2013-05-29 22:04:00,
2013-05-29 15:09:00,52.9,50.6,29.88,WSW,256,0.0,5.0,92,0.04,,---,0.35,VWS V13.00,2013-05-29 22:09:00,
2013-05-29 15:14:00,52.9,50.9,29.88,SW,227,0.0,7.0,93,0.04,,---,0.35,VWS V13.00,2013-05-29 22:14:00,
2013-05-29 15:19:00,53.2,51.2,29.88,SSW,200,0.0,9.0,93,0.04,,---,0.35,VWS V13.00,2013-05-29 22:19:00,
2013-05-29 15:24:00,53.3,51.3,29.88,SSE,147,0.0,9.0,93,0.04,,---,0.35,VWS V13.00,2013-05-29 22:24:00,
2013-05-29 15:29:00,53.6,51.6,29.88,SW,224,0.0,9.0,93,0.04,,---,0.35,VWS V13.00,2013-05-29 22:29:00,
2013-05-29 15:34:00,53.6,51.6,29.88,SW,233,2.0,9.0,93,0.04,,---,0.35,VWS V13.00,2013-05-29 22:34:00,
2013-05-29 15:39:00,53.6,51.3,29.89,SSE,168,0.0,5.0,92,0.04,,---,0.35,VWS V13.00,2013-05-29 22:39:00,
2013-05-29 15:44:00,53.8,51.8,29.89,ESE,113,2.0,5.0,93,0.04,,---,0.35,VWS V13.00,2013-05-29 22:44:00,
2013-05-29 15:49:00,53.8,51.5,29.89,WSW,250,0.0,7.0,92,0.04,,---,0.35,VWS V13.00,2013-05-29 22:49:00,
2013-05-29 15:54:00,53.8,51.5,29.89,WSW,250,3.0,7.0,92,0.04,,---,0.35,VWS V13.00,2013-05-29 22:54:00,
2013-05-29 15:59:00,53.8,51.5,29.89,SW,219,0.0,7.0,92,0.04,,---,0.35,VWS V13.00,2013-05-29 22:59:00,
2013-05-29 16:04:00,53.8,51.5,29.89,SW,233,0.0,7.0,92,0.04,,---,0.35,VWS V13.00,2013-05-29 23:04:00,
2013-05-29 16:09:00,53.9,51.6,29.89,SE,136,3.0,4.0,92,0.00,,---,0.35,VWS V13.00,2013-05-29 23:09:00,
2013-05-29 16:14:00,54.4,52.1,29.89,South,182,0.0,4.0,92,0.00,,---,0.35,VWS V13.00,2013-05-29 23:14:00,
2013-05-29 16:19:00,55.0,52.7,29.89,SW,236,1.0,4.0,92,0.00,,---,0.35,VWS V13.00,2013-05-29 23:19:00,
2013-05-29 16:24:00,55.1,52.2,29.89,NE,44,0.0,6.0,90,0.00,,---,0.35,VWS V13.00,2013-05-29 23:24:00,
2013-05-29 16:29:00,55.1,52.2,29.89,WNW,289,0.0,6.0,90,0.00,,---,0.35,VWS V13.00,2013-05-29 23:29:00,
2013-05-29 16:34:00,55.1,52.2,29.89,ENE,71,0.0,6.0,90,0.00,,---,0.35,VWS V13.00,2013-05-29 23:34:00,
2013-05-29 16:39:00,55.3,52.1,29.90,NW,319,1.0,5.0,89,0.00,,---,0.35,VWS V13.00,2013-05-29 23:39:00,
2013-05-29 16:44:00,55.6,52.4,29.90,East,96,1.0,5.0,89,0.00,,---,0.35,VWS V13.00,2013-05-29 23:44:00,
2013-05-29 16:49:00,55.7,52.5,29.90,West,275,0.0,5.0,89,0.00,,---,0.35,VWS V13.00,2013-05-29 23:49:00,
2013-05-29 16:54:00,55.7,52.2,29.90,WSW,241,0.0,5.0,88,0.00,,---,0.35,VWS V13.00,2013-05-29 23:54:00,
2013-05-29 16:59:00,56.0,52.2,29.90,WSW,257,0.0,6.0,87,0.00,,---,0.35,VWS V13.00,2013-05-29 23:59:00,
2013-05-29 17:04:00,56.0,51.9,29.90,SSW,205,0.0,6.0,86,0.00,,---,0.35,VWS V13.00,2013-05-30 00:04:00,
2013-05-29 17:09:00,55.9,51.5,29.90,WNW,285,0.0,0.0,85,0.00,,---,0.35,VWS V13.00,2013-05-30 00:09:00,
2013-05-29 17:14:00,55.9,51.5,29.90,WNW,282,0.0,0.0,85,0.00,,---,0.35,VWS V13.00,2013-05-30 00:14:00,
2013-05-29 17:19:00,55.7,51.0,29.90,NNW,332,0.0,1.0,84,0.00,,---,0.35,VWS V13.00,2013-05-30 00:19:00,
2013-05-29 17:24:00,55.7,50.6,29.91,SW,233,0.0,2.0,83,0.00,,---,0.35,VWS V13.00,2013-05-30 00:24:00,
2013-05-29 17:29:00,55.4,49.7,29.91,NW,322,0.0,2.0,81,0.00,,---,0.35,VWS V13.00,2013-05-30 00:29:00,
2013-05-29 17:34:00,55.4,50.3,29.91,WSW,241,0.0,7.0,83,0.00,,---,0.35,VWS V13.00,2013-05-30 00:34:00,
2013-05-29 17:39:00,55.3,50.2,29.91,SSW,208,0.0,5.0,83,0.00,,---,0.35,VWS V13.00,2013-05-30 00:39:00,
2013-05-29 17:44:00,55.3,50.9,29.91,South,172,0.0,6.0,85,0.00,,---,0.35,VWS V13.00,2013-05-30 00:44:00,
2013-05-29 17:49:00,55.3,50.6,29.91,SSW,213,0.0,10.0,84,0.00,,---,0.35,VWS V13.00,2013-05-30 00:49:00,
2013-05-29 17:54:00,55.3,50.6,29.92,WSW,237,1.0,10.0,84,0.00,,---,0.35,VWS V13.00,2013-05-30 00:54:00,
2013-05-29 17:59:00,55.0,50.3,29.92,SW,236,0.0,10.0,84,0.00,,---,0.35,VWS V13.00,2013-05-30 00:59:00,
2013-05-29 18:04:00,54.8,49.7,29.92,SSW,200,3.0,10.0,83,0.00,,---,0.35,VWS V13.00,2013-05-30 01:04:00,
2013-05-29 18:09:00,54.7,50.0,29.92,SW,215,2.0,5.0,84,0.00,,---,0.35,VWS V13.00,2013-05-30 01:09:00,
2013-05-29 18:14:00,54.5,50.1,29.92,SW,233,0.0,6.0,85,0.00,,---,0.35,VWS V13.00,2013-05-30 01:14:00,
2013-05-29 18:19:00,54.4,50.0,29.92,WSW,256,2.0,6.0,85,0.00,,---,0.35,VWS V13.00,2013-05-30 01:19:00,
2013-05-29 18:24:00,54.2,50.1,29.93,WNW,301,0.0,6.0,86,0.00,,---,0.35,VWS V13.00,2013-05-30 01:24:00,
2013-05-29 18:29:00,54.2,50.1,29.93,West,271,0.0,6.0,86,0.02,,---,0.37,VWS V13.00,2013-05-30 01:29:00,
2013-05-29 18:34:00,53.9,50.4,29.93,SW,233,0.0,6.0,88,0.02,,---,0.37,VWS V13.00,2013-05-30 01:34:00,
2013-05-29 18:39:00,53.6,50.1,29.93,ENE,65,0.0,2.0,88,0.02,,---,0.37,VWS V13.00,2013-05-30 01:39:00,
2013-05-29 18:44:00,53.5,50.0,29.93,ENE,68,0.0,2.0,88,0.02,,---,0.37,VWS V13.00,2013-05-30 01:44:00,
2013-05-29 18:49:00,53.3,49.8,29.93,SW,226,0.0,2.0,88,0.02,,---,0.37,VWS V13.00,2013-05-30 01:49:00,
2013-05-29 18:54:00,53.6,50.4,29.93,NW,304,0.0,2.0,89,0.02,,---,0.37,VWS V13.00,2013-05-30 01:54:00,
2013-05-29 18:59:00,54.1,51.2,29.93,South,184,0.0,2.0,90,0.02,,---,0.37,VWS V13.00,2013-05-30 01:59:00,
2013-05-29 19:04:00,54.5,51.9,29.93,WSW,246,0.0,2.0,91,0.02,,---,0.37,VWS V13.00,2013-05-30 02:04:00,
2013-05-29 19:09:00,54.5,51.6,29.93,WSW,239,0.0,2.0,90,0.02,,---,0.37,VWS V13.00,2013-05-30 02:09:00,
2013-05-29 19:14:00,54.5,51.3,29.93,SSW,208,0.0,2.0,89,0.02,,---,0.37,VWS V13.00,2013-05-30 02:14:00,
2013-05-29 19:19:00,54.5,51.0,29.93,SSW,212,0.0,3.0,88,0.02,,---,0.37,VWS V13.00,2013-05-30 02:19:00,
2013-05-29 19:24:00,54.4,50.6,29.94,South,182,0.0,3.0,87,0.02,,---,0.37,VWS V13.00,2013-05-30 02:24:00,
2013-05-29 19:29:00,54.4,50.3,29.94,SSE,165,0.0,3.0,86,0.02,,---,0.37,VWS V13.00,2013-05-30 02:29:00,
2013-05-29 19:34:00,54.4,50.3,29.94,SSE,165,0.0,3.0,86,0.02,,---,0.37,VWS V13.00,2013-05-30 02:34:00,
2013-05-29 19:39:00,54.2,50.1,29.95,SSE,165,0.0,1.0,86,0.00,,---,0.37,VWS V13.00,2013-05-30 02:39:00,
2013-05-29 19:44:00,54.2,50.1,29.95,SSE,165,0.0,1.0,86,0.00,,---,0.37,VWS V13.00,2013-05-30 02:44:00,
2013-05-29 19:49:00,54.1,49.7,29.95,SSE,165,0.0,1.0,85,0.00,,---,0.37,VWS V13.00,2013-05-30 02:49:00,
2013-05-29 19:54:00,53.9,49.5,29.95,WSW,254,0.0,1.0,85,0.00,,---,0.37,VWS V13.00,2013-05-30 02:54:00,
2013-05-29 19:59:00,53.8,49.1,29.95,WSW,254,0.0,1.0,84,0.00,,---,0.37,VWS V13.00,2013-05-30 02:59:00,
2013-05-29 20:04:00,53.6,48.9,29.95,South,174,0.0,1.0,84,0.00,,---,0.37,VWS V13.00,2013-05-30 03:04:00,
2013-05-29 20:09:00,53.5,49.1,29.95,South,174,0.0,0.0,85,0.00,,---,0.37,VWS V13.00,2013-05-30 03:09:00,
2013-05-29 20:14:00,53.5,49.7,29.95,South,181,0.0,0.0,87,0.00,,---,0.37,VWS V13.00,2013-05-30 03:14:00,
2013-05-29 20:19:00,53.3,49.5,29.95,South,171,0.0,0.0,87,0.00,,---,0.37,VWS V13.00,2013-05-30 03:19:00,
2013-05-29 20:24:00,53.1,49.0,29.95,WSW,248,0.0,2.0,86,0.00,,---,0.37,VWS V13.00,2013-05-30 03:24:00,
2013-05-29 20:29:00,53.1,49.0,29.95,WSW,251,0.0,2.0,86,0.00,,---,0.37,VWS V13.00,2013-05-30 03:29:00,
2013-05-29 20:34:00,52.9,48.8,29.95,SW,226,0.0,2.0,86,0.00,,---,0.37,VWS V13.00,2013-05-30 03:34:00,
2013-05-29 20:39:00,52.8,48.7,29.95,South,171,0.0,0.0,86,0.00,,---,0.37,VWS V13.00,2013-05-30 03:39:00,
2013-05-29 20:44:00,52.6,48.5,29.95,SSE,151,0.0,0.0,86,0.00,,---,0.37,VWS V13.00,2013-05-30 03:44:00,
2013-05-29 20:49:00,52.6,48.8,29.95,SE,136,0.0,2.0,87,0.00,,---,0.37,VWS V13.00,2013-05-30 03:49:00,
2013-05-29 20:54:00,52.5,48.8,29.95,SSW,205,0.0,3.0,87,0.00,,---,0.37,VWS V13.00,2013-05-30 03:54:00,
2013-05-29 20:59:00,52.5,49.0,29.95,SW,216,3.0,3.0,88,0.00,,---,0.37,VWS V13.00,2013-05-30 03:59:00,
2013-05-29 21:01:00,52.3,48.5,29.95,SSW,202,0.0,3.0,87,0.00,,---,0.37,VWS V13.00,2013-05-30 04:01:00,
2013-05-29 21:06:00,52.2,48.8,29.96,SW,227,0.0,3.0,88,0.00,,---,0.37,VWS V13.00,2013-05-30 04:06:00,
2013-05-29 21:11:00,52.0,48.6,29.96,SW,232,0.0,2.0,88,0.00,,---,0.37,VWS V13.00,2013-05-30 04:11:00,
2013-05-29 21:16:00,52.0,48.6,29.96,West,264,0.0,3.0,88,0.00,,---,0.37,VWS V13.00,2013-05-30 04:16:00,
2013-05-29 21:21:00,51.9,48.5,29.97,SW,229,0.0,3.0,88,0.00,,---,0.37,VWS V13.00,2013-05-30 04:21:00,
2013-05-29 21:26:00,51.9,48.5,29.97,SW,232,0.0,3.0,88,0.00,,---,0.37,VWS V13.00,2013-05-30 04:26:00,
2013-05-29 21:31:00,51.7,48.6,29.97,SSW,208,1.0,5.0,89,0.00,,---,0.37,VWS V13.00,2013-05-30 04:31:00,
2013-05-29 21:36:00,51.6,48.5,29.97,SSW,196,0.0,5.0,89,0.00,,---,0.37,VWS V13.00,2013-05-30 04:36:00,
2013-05-29 21:41:00,51.6,48.5,29.97,South,185,0.0,0.0,89,0.00,,---,0.37,VWS V13.00,2013-05-30 04:41:00,
2013-05-29 21:46:00,51.4,48.3,29.97,SW,230,1.0,2.0,89,0.01,,---,0.38,VWS V13.00,2013-05-30 04:46:00,
2013-05-29 21:51:00,51.3,48.5,29.98,SSW,205,0.0,2.0,90,0.01,,---,0.38,VWS V13.00,2013-05-30 04:51:00,
2013-05-29 21:56:00,51.1,48.3,29.98,SW,222,0.0,3.0,90,0.01,,---,0.38,VWS V13.00,2013-05-30 04:56:00,
2013-05-29 22:01:00,51.0,48.2,29.98,South,172,1.0,5.0,90,0.01,,---,0.38,VWS V13.00,2013-05-30 05:01:00,
2013-05-29 22:06:00,50.8,48.0,29.98,South,179,0.0,5.0,90,0.01,,---,0.38,VWS V13.00,2013-05-30 05:06:00,
2013-05-29 22:11:00,50.8,48.0,29.98,SW,220,0.0,0.0,90,0.01,,---,0.38,VWS V13.00,2013-05-30 05:11:00,
2013-05-29 22:16:00,50.7,47.9,29.98,SW,226,0.0,2.0,90,0.01,,---,0.38,VWS V13.00,2013-05-30 05:16:00,
2013-05-29 22:21:00,50.7,47.9,29.99,SSE,150,0.0,3.0,90,0.01,,---,0.38,VWS V13.00,2013-05-30 05:21:00,
2013-05-29 22:26:00,50.5,47.7,29.99,SSW,202,0.0,4.0,90,0.01,,---,0.38,VWS V13.00,2013-05-30 05:26:00,
2013-05-29 22:31:00,50.5,47.7,29.99,SE,137,0.0,5.0,90,0.01,,---,0.38,VWS V13.00,2013-05-30 05:31:00,
2013-05-29 22:36:00,50.4,47.6,30.00,SSE,161,0.0,5.0,90,0.01,,---,0.38,VWS V13.00,2013-05-30 05:36:00,
2013-05-29 22:41:00,50.2,47.4,30.00,SSE,154,0.0,1.0,90,0.01,,---,0.38,VWS V13.00,2013-05-30 05:41:00,
2013-05-29 22:46:00,50.2,47.4,30.00,SSW,199,0.0,2.0,90,0.01,,---,0.38,VWS V13.00,2013-05-30 05:46:00,
2013-05-29 22:51:00,50.1,47.6,30.00,WSW,247,0.0,3.0,91,0.01,,---,0.38,VWS V13.00,2013-05-30 05:51:00,
2013-05-29 22:56:00,50.1,47.6,30.00,SW,226,0.0,3.0,91,0.01,,---,0.38,VWS V13.00,2013-05-30 05:56:00,
2013-05-29 23:01:00,49.9,47.4,30.00,SW,216,0.0,3.0,91,0.01,,---,0.38,VWS V13.00,2013-05-30 06:01:00,
2013-05-29 23:06:00,49.9,47.4,30.00,SW,224,0.0,3.0,91,0.01,,---,0.38,VWS V13.00,2013-05-30 06:06:00,
2013-05-29 23:11:00,49.8,47.3,30.00,SW,222,0.0,1.0,91,0.00,,---,0.38,VWS V13.00,2013-05-30 06:11:00,
2013-05-29 23:16:00,49.8,47.6,30.00,SSW,202,0.0,5.0,92,0.00,,---,0.38,VWS V13.00,2013-05-30 06:16:00,
2013-05-29 23:21:00,49.6,47.1,30.00,SW,226,0.0,5.0,91,0.00,,---,0.38,VWS V13.00,2013-05-30 06:21:00,
2013-05-29 23:26:00,49.6,47.1,30.00,SW,234,0.0,5.0,91,0.00,,---,0.38,VWS V13.00,2013-05-30 06:26:00,
2013-05-29 23:31:00,49.6,47.1,30.00,SSW,209,0.0,5.0,91,0.00,,---,0.38,VWS V13.00,2013-05-30 06:31:00,
2013-05-29 23:36:00,49.6,47.1,30.01,WSW,240,0.0,5.0,91,0.00,,---,0.38,VWS V13.00,2013-05-30 06:36:00,
2013-05-29 23:41:00,49.6,47.1,30.01,WSW,241,0.0,1.0,91,0.00,,---,0.38,VWS V13.00,2013-05-30 06:41:00,
2013-05-29 23:46:00,49.6,47.4,30.01,SW,234,3.0,3.0,92,0.00,,---,0.38,VWS V13.00,2013-05-30 06:46:00,
2013-05-29 23:51:00,49.6,47.1,30.01,West,271,0.0,5.0,91,0.00,,---,0.38,VWS V13.00,2013-05-30 06:51:00,
2013-05-29 23:56:00,49.6,47.4,30.01,South,184,0.0,5.0,92,0.00,,---,0.38,VWS V13.00,2013-05-30 06:56:00,